Aviation Digital Data Service (ADDS)

Output produced by METARs form (2240 UTC 23 March 2019)
found at http://www.aviationweather.gov/metar/data/
 
METAR text: KBJC 232147Z 08009G14KT 35SM BKN026 BKN090 BKN120 09/02 A2995
Conditions at: KBJC (BROOMFIELD/JEFFC, CO, US) observed 2147 UTC 23 March 2019
Temperature: 9.0°C (48°F)
Dewpoint: 2.0°C (36°F) [RH = 61%]
Pressure (altimeter): 29.95 inches Hg (1014.3 mb)
Winds: from the E (80 degrees) at 10 MPH (9 knots; 4.6 m/s)
gusting to 16 MPH (14 knots; 7.2 m/s)
Visibility: 35 miles (56 km)
Ceiling: 2600 feet AGL
Clouds: broken clouds at 2600 feet AGL
broken clouds at 9000 feet AGL
broken clouds at 12000 feet AGL
Weather: no significant weather observed at this time

METAR text: KBJC 232142Z 08008KT 40SM BKN026 BKN090 BKN120 09/02 A2994
Conditions at: KBJC (BROOMFIELD/JEFFC, CO, US) observed 2142 UTC 23 March 2019
Temperature: 9.0°C (48°F)
Dewpoint: 2.0°C (36°F) [RH = 61%]
Pressure (altimeter): 29.94 inches Hg (1014.0 mb)
Winds: from the E (80 degrees) at 9 MPH (8 knots; 4.1 m/s)
Visibility: 40 miles (64 km)
Ceiling: 2600 feet AGL
Clouds: broken clouds at 2600 feet AGL
broken clouds at 9000 feet AGL
broken clouds at 12000 feet AGL
Weather: no significant weather observed at this time

METAR text: KBJC 232045Z 05009KT 10SM OVC070 09/02 A2993
Conditions at: KBJC (BROOMFIELD/JEFFC, CO, US) observed 2045 UTC 23 March 2019
Temperature: 9.0°C (48°F)
Dewpoint: 2.0°C (36°F) [RH = 61%]
Pressure (altimeter): 29.93 inches Hg (1013.6 mb)
Winds: from the NE (50 degrees) at 10 MPH (9 knots; 4.6 m/s)
Visibility: 10 or more miles (16+ km)
Ceiling: 7000 feet AGL
Clouds: overcast cloud deck at 7000 feet AGL
Weather: no significant weather observed at this time

METAR text: KBJC 231859Z 10007KT 10SM OVC080 09/00 A2993
Conditions at: KBJC (BROOMFIELD/JEFFC, CO, US) observed 1859 UTC 23 March 2019
Temperature: 9.0°C (48°F)
Dewpoint: 0.0°C (32°F) [RH = 53%]
Pressure (altimeter): 29.93 inches Hg (1013.6 mb)
Winds: from the E (100 degrees) at 8 MPH (7 knots; 3.6 m/s)
Visibility: 10 or more miles (16+ km)
Ceiling: 8000 feet AGL
Clouds: overcast cloud deck at 8000 feet AGL
Weather: no significant weather observed at this time

METAR text: KBJC 231745Z 11009KT 10SM OVC080 09/02 A2993
Conditions at: KBJC (BROOMFIELD/JEFFC, CO, US) observed 1745 UTC 23 March 2019
Temperature: 9.0°C (48°F)
Dewpoint: 2.0°C (36°F) [RH = 61%]
Pressure (altimeter): 29.93 inches Hg (1013.6 mb)
Winds: from the ESE (110 degrees) at 10 MPH (9 knots; 4.6 m/s)
Visibility: 10 or more miles (16+ km)
Ceiling: 8000 feet AGL
Clouds: overcast cloud deck at 8000 feet AGL
Weather: no significant weather observed at this time

METAR text: KBJC 231646Z 12009KT 20SM OVC070 07/02 A2993
Conditions at: KBJC (BROOMFIELD/JEFFC, CO, US) observed 1646 UTC 23 March 2019
Temperature: 7.0°C (45°F)
Dewpoint: 2.0°C (36°F) [RH = 70%]
Pressure (altimeter): 29.93 inches Hg (1013.6 mb)
Winds: from the ESE (120 degrees) at 10 MPH (9 knots; 4.6 m/s)
Visibility: 20 miles (32 km)
Ceiling: 7000 feet AGL
Clouds: overcast cloud deck at 7000 feet AGL
Weather: no significant weather observed at this time

METAR text: KBJC 231546Z 15011KT 20SM FEW070 BKN100 05/02 A2993
Conditions at: KBJC (BROOMFIELD/JEFFC, CO, US) observed 1546 UTC 23 March 2019
Temperature: 5.0°C (41°F)
Dewpoint: 2.0°C (36°F) [RH = 81%]
Pressure (altimeter): 29.93 inches Hg (1013.6 mb)
Winds: from the SSE (150 degrees) at 13 MPH (11 knots; 5.7 m/s)
Visibility: 20 miles (32 km)
Ceiling: 10000 feet AGL
Clouds: few clouds at 7000 feet AGL
broken clouds at 10000 feet AGL
Weather: no significant weather observed at this time

METAR text: KBJC 231445Z 14007KT 20SM FEW070 BKN100 04/02 A2993
Conditions at: KBJC (BROOMFIELD/JEFFC, CO, US) observed 1445 UTC 23 March 2019
Temperature: 4.0°C (39°F)
Dewpoint: 2.0°C (36°F) [RH = 87%]
Pressure (altimeter): 29.93 inches Hg (1013.6 mb)
Winds: from the SE (140 degrees) at 8 MPH (7 knots; 3.6 m/s)
Visibility: 20 miles (32 km)
Ceiling: 10000 feet AGL
Clouds: few clouds at 7000 feet AGL
broken clouds at 10000 feet AGL
Weather: no significant weather observed at this time

METAR text: KBJC 231345Z 14007KT 10SM BKN100 03/02 A2992
Conditions at: KBJC (BROOMFIELD/JEFFC, CO, US) observed 1345 UTC 23 March 2019
Temperature: 3.0°C (37°F)
Dewpoint: 2.0°C (36°F) [RH = 93%]
Pressure (altimeter): 29.92 inches Hg (1013.3 mb)
Winds: from the SE (140 degrees) at 8 MPH (7 knots; 3.6 m/s)
Visibility: 10 or more miles (16+ km)
Ceiling: 10000 feet AGL
Clouds: broken clouds at 10000 feet AGL
Weather: no significant weather observed at this time

METAR text: KBJC 231245Z 14006KT 15SM BKN110 03/02 A2990
Conditions at: KBJC (BROOMFIELD/JEFFC, CO, US) observed 1245 UTC 23 March 2019
Temperature: 3.0°C (37°F)
Dewpoint: 2.0°C (36°F) [RH = 93%]
Pressure (altimeter): 29.90 inches Hg (1012.6 mb)
Winds: from the SE (140 degrees) at 7 MPH (6 knots; 3.1 m/s)
Visibility: 15 miles (24 km)
Ceiling: 11000 feet AGL
Clouds: broken clouds at 11000 feet AGL
Weather: no significant weather observed at this time

METAR text: KBJC 231159Z AUTO 14005KT 10SM CLR 02/01 A2989 RMK AO2
Conditions at: KBJC (BROOMFIELD/JEFFC, CO, US) observed 1159 UTC 23 March 2019
Temperature: 2.0°C (36°F)
Dewpoint: 1.0°C (34°F) [RH = 93%]
Pressure (altimeter): 29.89 inches Hg (1012.3 mb)
Winds: from the SE (140 degrees) at 6 MPH (5 knots; 2.6 m/s)
Visibility: 10 or more miles (16+ km)
Ceiling: at least 12,000 feet AGL
Clouds: sky clear below 12,000 feet AGL
Weather: automated observation with no human augmentation;
there may or may not be significant weather present at this time

METAR text: KBJC 231153Z AUTO 14005KT 10SM CLR 02/01 A2989 RMK AO2
Conditions at: KBJC (BROOMFIELD/JEFFC, CO, US) observed 1153 UTC 23 March 2019
Temperature: 2.0°C (36°F)
Dewpoint: 1.0°C (34°F) [RH = 93%]
Pressure (altimeter): 29.89 inches Hg (1012.3 mb)
Winds: from the SE (140 degrees) at 6 MPH (5 knots; 2.6 m/s)
Visibility: 10 or more miles (16+ km)
Ceiling: at least 12,000 feet AGL
Clouds: sky clear below 12,000 feet AGL
Weather: automated observation with no human augmentation;
there may or may not be significant weather present at this time

METAR text: KBJC 231145Z 12006KT 15SM SCT110 03/02 A2989
Conditions at: KBJC (BROOMFIELD/JEFFC, CO, US) observed 1145 UTC 23 March 2019
Temperature: 3.0°C (37°F)
Dewpoint: 2.0°C (36°F) [RH = 93%]
Pressure (altimeter): 29.89 inches Hg (1012.3 mb)
Winds: from the ESE (120 degrees) at 7 MPH (6 knots; 3.1 m/s)
Visibility: 15 miles (24 km)
Ceiling: at least 12,000 feet AGL
Clouds: scattered clouds at 11000 feet AGL
Weather: no significant weather observed at this time

METAR text: KBJC 231136Z AUTO 13005KT 10SM SCT110 02/01 A2989 RMK AO2
Conditions at: KBJC (BROOMFIELD/JEFFC, CO, US) observed 1136 UTC 23 March 2019
Temperature: 2.0°C (36°F)
Dewpoint: 1.0°C (34°F) [RH = 93%]
Pressure (altimeter): 29.89 inches Hg (1012.3 mb)
Winds: from the SE (130 degrees) at 6 MPH (5 knots; 2.6 m/s)
Visibility: 10 or more miles (16+ km)
Ceiling: at least 12,000 feet AGL
Clouds: scattered clouds at 11000 feet AGL
Weather: automated observation with no human augmentation;
there may or may not be significant weather present at this time

METAR text: KBJC 231130Z AUTO 11005KT 10SM BKN110 02/02 A2988 RMK AO2
Conditions at: KBJC (BROOMFIELD/JEFFC, CO, US) observed 1130 UTC 23 March 2019
Temperature: 2.0°C (36°F)
Dewpoint: 2.0°C (36°F) [RH = 100%]
Pressure (altimeter): 29.88 inches Hg (1011.9 mb)
Winds: from the ESE (110 degrees) at 6 MPH (5 knots; 2.6 m/s)
Visibility: 10 or more miles (16+ km)
Ceiling: 11000 feet AGL
Clouds: broken clouds at 11000 feet AGL
Weather: automated observation with no human augmentation;
there may or may not be significant weather present at this time

METAR text: KBJC 231112Z AUTO 10005KT 10SM OVC110 02/02 A2988 RMK AO2
Conditions at: KBJC (BROOMFIELD/JEFFC, CO, US) observed 1112 UTC 23 March 2019
Temperature: 2.0°C (36°F)
Dewpoint: 2.0°C (36°F) [RH = 100%]
Pressure (altimeter): 29.88 inches Hg (1011.9 mb)
Winds: from the E (100 degrees) at 6 MPH (5 knots; 2.6 m/s)
Visibility: 10 or more miles (16+ km)
Ceiling: 11000 feet AGL
Clouds: overcast cloud deck at 11000 feet AGL
Weather: automated observation with no human augmentation;
there may or may not be significant weather present at this time

METAR text: KBJC 231054Z AUTO 14005KT 10SM OVC100 02/02 A2987 RMK AO2
Conditions at: KBJC (BROOMFIELD/JEFFC, CO, US) observed 1054 UTC 23 March 2019
Temperature: 2.0°C (36°F)
Dewpoint: 2.0°C (36°F) [RH = 100%]
Pressure (altimeter): 29.87 inches Hg (1011.6 mb)
Winds: from the SE (140 degrees) at 6 MPH (5 knots; 2.6 m/s)
Visibility: 10 or more miles (16+ km)
Ceiling: 10000 feet AGL
Clouds: overcast cloud deck at 10000 feet AGL
Weather: automated observation with no human augmentation;
there may or may not be significant weather present at this time

METAR text: KBJC 231030Z AUTO 13005KT 10SM OVC090 03/02 A2987 RMK AO2
Conditions at: KBJC (BROOMFIELD/JEFFC, CO, US) observed 1030 UTC 23 March 2019
Temperature: 3.0°C (37°F)
Dewpoint: 2.0°C (36°F) [RH = 93%]
Pressure (altimeter): 29.87 inches Hg (1011.6 mb)
Winds: from the SE (130 degrees) at 6 MPH (5 knots; 2.6 m/s)
Visibility: 10 or more miles (16+ km)
Ceiling: 9000 feet AGL
Clouds: overcast cloud deck at 9000 feet AGL
Weather: automated observation with no human augmentation;
there may or may not be significant weather present at this time

METAR text: KBJC 231012Z AUTO 11005KT 10SM OVC090 03/02 A2987 RMK AO2
Conditions at: KBJC (BROOMFIELD/JEFFC, CO, US) observed 1012 UTC 23 March 2019
Temperature: 3.0°C (37°F)
Dewpoint: 2.0°C (36°F) [RH = 93%]
Pressure (altimeter): 29.87 inches Hg (1011.6 mb)
Winds: from the ESE (110 degrees) at 6 MPH (5 knots; 2.6 m/s)
Visibility: 10 or more miles (16+ km)
Ceiling: 9000 feet AGL
Clouds: overcast cloud deck at 9000 feet AGL
Weather: automated observation with no human augmentation;
there may or may not be significant weather present at this time

METAR text: KBJC 230954Z AUTO 15004KT 7SM OVC090 03/02 A2986 RMK AO2
Conditions at: KBJC (BROOMFIELD/JEFFC, CO, US) observed 0954 UTC 23 March 2019
Temperature: 3.0°C (37°F)
Dewpoint: 2.0°C (36°F) [RH = 93%]
Pressure (altimeter): 29.86 inches Hg (1011.3 mb)
Winds: from the SSE (150 degrees) at 5 MPH (4 knots; 2.1 m/s)
Visibility: 7 miles (11 km)
Ceiling: 9000 feet AGL
Clouds: overcast cloud deck at 9000 feet AGL
Weather: automated observation with no human augmentation;
there may or may not be significant weather present at this time

METAR text: KBJC 230930Z AUTO 17006KT 7SM OVC085 03/02 A2987 RMK AO2
Conditions at: KBJC (BROOMFIELD/JEFFC, CO, US) observed 0930 UTC 23 March 2019
Temperature: 3.0°C (37°F)
Dewpoint: 2.0°C (36°F) [RH = 93%]
Pressure (altimeter): 29.87 inches Hg (1011.6 mb)
Winds: from the S (170 degrees) at 7 MPH (6 knots; 3.1 m/s)
Visibility: 7 miles (11 km)
Ceiling: 8500 feet AGL
Clouds: overcast cloud deck at 8500 feet AGL
Weather: automated observation with no human augmentation;
there may or may not be significant weather present at this time

METAR text: KBJC 230912Z AUTO 16004KT 10SM OVC075 03/02 A2988 RMK AO2
Conditions at: KBJC (BROOMFIELD/JEFFC, CO, US) observed 0912 UTC 23 March 2019
Temperature: 3.0°C (37°F)
Dewpoint: 2.0°C (36°F) [RH = 93%]
Pressure (altimeter): 29.88 inches Hg (1011.9 mb)
Winds: from the SSE (160 degrees) at 5 MPH (4 knots; 2.1 m/s)
Visibility: 10 or more miles (16+ km)
Ceiling: 7500 feet AGL
Clouds: overcast cloud deck at 7500 feet AGL
Weather: automated observation with no human augmentation;
there may or may not be significant weather present at this time

METAR text: KBJC 230854Z AUTO 14004KT 10SM OVC075 03/02 A2989 RMK AO2
Conditions at: KBJC (BROOMFIELD/JEFFC, CO, US) observed 0854 UTC 23 March 2019
Temperature: 3.0°C (37°F)
Dewpoint: 2.0°C (36°F) [RH = 93%]
Pressure (altimeter): 29.89 inches Hg (1012.3 mb)
Winds: from the SE (140 degrees) at 5 MPH (4 knots; 2.1 m/s)
Visibility: 10 or more miles (16+ km)
Ceiling: 7500 feet AGL
Clouds: overcast cloud deck at 7500 feet AGL
Weather: automated observation with no human augmentation;
there may or may not be significant weather present at this time

METAR text: KBJC 230830Z AUTO 15005KT 10SM OVC075 03/02 A2990 RMK AO2
Conditions at: KBJC (BROOMFIELD/JEFFC, CO, US) observed 0830 UTC 23 March 2019
Temperature: 3.0°C (37°F)
Dewpoint: 2.0°C (36°F) [RH = 93%]
Pressure (altimeter): 29.90 inches Hg (1012.6 mb)
Winds: from the SSE (150 degrees) at 6 MPH (5 knots; 2.6 m/s)
Visibility: 10 or more miles (16+ km)
Ceiling: 7500 feet AGL
Clouds: overcast cloud deck at 7500 feet AGL
Weather: automated observation with no human augmentation;
there may or may not be significant weather present at this time

METAR text: KBJC 230812Z AUTO 15004KT 10SM OVC075 03/02 A2991 RMK AO2
Conditions at: KBJC (BROOMFIELD/JEFFC, CO, US) observed 0812 UTC 23 March 2019
Temperature: 3.0°C (37°F)
Dewpoint: 2.0°C (36°F) [RH = 93%]
Pressure (altimeter): 29.91 inches Hg (1013.0 mb)
Winds: from the SSE (150 degrees) at 5 MPH (4 knots; 2.1 m/s)
Visibility: 10 or more miles (16+ km)
Ceiling: 7500 feet AGL
Clouds: overcast cloud deck at 7500 feet AGL
Weather: automated observation with no human augmentation;
there may or may not be significant weather present at this time

METAR text: KBJC 230754Z AUTO 15004KT 10SM OVC075 03/02 A2991 RMK AO2
Conditions at: KBJC (BROOMFIELD/JEFFC, CO, US) observed 0754 UTC 23 March 2019
Temperature: 3.0°C (37°F)
Dewpoint: 2.0°C (36°F) [RH = 93%]
Pressure (altimeter): 29.91 inches Hg (1013.0 mb)
Winds: from the SSE (150 degrees) at 5 MPH (4 knots; 2.1 m/s)
Visibility: 10 or more miles (16+ km)
Ceiling: 7500 feet AGL
Clouds: overcast cloud deck at 7500 feet AGL
Weather: automated observation with no human augmentation;
there may or may not be significant weather present at this time

METAR text: KBJC 230730Z AUTO 17003KT 10SM OVC075 03/02 A2991 RMK AO2
Conditions at: KBJC (BROOMFIELD/JEFFC, CO, US) observed 0730 UTC 23 March 2019
Temperature: 3.0°C (37°F)
Dewpoint: 2.0°C (36°F) [RH = 93%]
Pressure (altimeter): 29.91 inches Hg (1013.0 mb)
Winds: from the S (170 degrees) at 3 MPH (3 knots; 1.5 m/s)
Visibility: 10 or more miles (16+ km)
Ceiling: 7500 feet AGL
Clouds: overcast cloud deck at 7500 feet AGL
Weather: automated observation with no human augmentation;
there may or may not be significant weather present at this time

METAR text: KBJC 230712Z AUTO 19004KT 10SM SCT075 OVC080 03/02 A2992 RMK AO2
Conditions at: KBJC (BROOMFIELD/JEFFC, CO, US) observed 0712 UTC 23 March 2019
Temperature: 3.0°C (37°F)
Dewpoint: 2.0°C (36°F) [RH = 93%]
Pressure (altimeter): 29.92 inches Hg (1013.3 mb)
Winds: from the S (190 degrees) at 5 MPH (4 knots; 2.1 m/s)
Visibility: 10 or more miles (16+ km)
Ceiling: 8000 feet AGL
Clouds: scattered clouds at 7500 feet AGL
overcast cloud deck at 8000 feet AGL
Weather: automated observation with no human augmentation;
there may or may not be significant weather present at this time

METAR text: KBJC 230654Z AUTO 19003KT 10SM OVC075 03/02 A2992 RMK AO2
Conditions at: KBJC (BROOMFIELD/JEFFC, CO, US) observed 0654 UTC 23 March 2019
Temperature: 3.0°C (37°F)
Dewpoint: 2.0°C (36°F) [RH = 93%]
Pressure (altimeter): 29.92 inches Hg (1013.3 mb)
Winds: from the S (190 degrees) at 3 MPH (3 knots; 1.5 m/s)
Visibility: 10 or more miles (16+ km)
Ceiling: 7500 feet AGL
Clouds: overcast cloud deck at 7500 feet AGL
Weather: automated observation with no human augmentation;
there may or may not be significant weather present at this time

METAR text: KBJC 230630Z AUTO 00000KT 10SM OVC075 03/02 A2993 RMK AO2
Conditions at: KBJC (BROOMFIELD/JEFFC, CO, US) observed 0630 UTC 23 March 2019
Temperature: 3.0°C (37°F)
Dewpoint: 2.0°C (36°F) [RH = 93%]
Pressure (altimeter): 29.93 inches Hg (1013.6 mb)
Winds: calm
Visibility: 10 or more miles (16+ km)
Ceiling: 7500 feet AGL
Clouds: overcast cloud deck at 7500 feet AGL
Weather: automated observation with no human augmentation;
there may or may not be significant weather present at this time

METAR text: KBJC 230612Z AUTO 19003KT 10SM OVC080 03/02 A2993 RMK AO2
Conditions at: KBJC (BROOMFIELD/JEFFC, CO, US) observed 0612 UTC 23 March 2019
Temperature: 3.0°C (37°F)
Dewpoint: 2.0°C (36°F) [RH = 93%]
Pressure (altimeter): 29.93 inches Hg (1013.6 mb)
Winds: from the S (190 degrees) at 3 MPH (3 knots; 1.5 m/s)
Visibility: 10 or more miles (16+ km)
Ceiling: 8000 feet AGL
Clouds: overcast cloud deck at 8000 feet AGL
Weather: automated observation with no human augmentation;
there may or may not be significant weather present at this time

METAR text: KBJC 230554Z AUTO 00000KT 10SM OVC080 03/02 A2993 RMK AO2
Conditions at: KBJC (BROOMFIELD/JEFFC, CO, US) observed 0554 UTC 23 March 2019
Temperature: 3.0°C (37°F)
Dewpoint: 2.0°C (36°F) [RH = 93%]
Pressure (altimeter): 29.93 inches Hg (1013.6 mb)
Winds: calm
Visibility: 10 or more miles (16+ km)
Ceiling: 8000 feet AGL
Clouds: overcast cloud deck at 8000 feet AGL
Weather: automated observation with no human augmentation;
there may or may not be significant weather present at this time

METAR text: KBJC 230530Z AUTO 00000KT 10SM OVC080 03/02 A2995 RMK AO2
Conditions at: KBJC (BROOMFIELD/JEFFC, CO, US) observed 0530 UTC 23 March 2019
Temperature: 3.0°C (37°F)
Dewpoint: 2.0°C (36°F) [RH = 93%]
Pressure (altimeter): 29.95 inches Hg (1014.3 mb)
Winds: calm
Visibility: 10 or more miles (16+ km)
Ceiling: 8000 feet AGL
Clouds: overcast cloud deck at 8000 feet AGL
Weather: automated observation with no human augmentation;
there may or may not be significant weather present at this time

METAR text: KBJC 230512Z AUTO 00000KT 10SM OVC080 03/02 A2995 RMK AO2
Conditions at: KBJC (BROOMFIELD/JEFFC, CO, US) observed 0512 UTC 23 March 2019
Temperature: 3.0°C (37°F)
Dewpoint: 2.0°C (36°F) [RH = 93%]
Pressure (altimeter): 29.95 inches Hg (1014.3 mb)
Winds: calm
Visibility: 10 or more miles (16+ km)
Ceiling: 8000 feet AGL
Clouds: overcast cloud deck at 8000 feet AGL
Weather: automated observation with no human augmentation;
there may or may not be significant weather present at this time

METAR text: KBJC 230452Z AUTO 00000KT 10SM SCT018 OVC080 03/02 A2995 RMK AO2
Conditions at: KBJC (BROOMFIELD/JEFFC, CO, US) observed 0452 UTC 23 March 2019
Temperature: 3.0°C (37°F)
Dewpoint: 2.0°C (36°F) [RH = 93%]
Pressure (altimeter): 29.95 inches Hg (1014.3 mb)
Winds: calm
Visibility: 10 or more miles (16+ km)
Ceiling: 8000 feet AGL
Clouds: scattered clouds at 1800 feet AGL
overcast cloud deck at 8000 feet AGL
Weather: automated observation with no human augmentation;
there may or may not be significant weather present at this time

METAR text: KBJC 230435Z AUTO 00000KT 10SM SCT018 OVC090 03/02 A2995 RMK AO2
Conditions at: KBJC (BROOMFIELD/JEFFC, CO, US) observed 0435 UTC 23 March 2019
Temperature: 3.0°C (37°F)
Dewpoint: 2.0°C (36°F) [RH = 93%]
Pressure (altimeter): 29.95 inches Hg (1014.3 mb)
Winds: calm
Visibility: 10 or more miles (16+ km)
Ceiling: 9000 feet AGL
Clouds: scattered clouds at 1800 feet AGL
overcast cloud deck at 9000 feet AGL
Weather: automated observation with no human augmentation;
there may or may not be significant weather present at this time

METAR text: KBJC 230411Z AUTO 36005KT 10SM BKN060 OVC080 03/02 A2994 RMK AO2
Conditions at: KBJC (BROOMFIELD/JEFFC, CO, US) observed 0411 UTC 23 March 2019
Temperature: 3.0°C (37°F)
Dewpoint: 2.0°C (36°F) [RH = 93%]
Pressure (altimeter): 29.94 inches Hg (1014.0 mb)
Winds: from the N (360 degrees) at 6 MPH (5 knots; 2.6 m/s)
Visibility: 10 or more miles (16+ km)
Ceiling: 6000 feet AGL
Clouds: broken clouds at 6000 feet AGL
overcast cloud deck at 8000 feet AGL
Weather: automated observation with no human augmentation;
there may or may not be significant weather present at this time

METAR text: KBJC 230347Z 01009KT 15SM SCT040 OVC065 04/02 A2994 RMK LAST
Conditions at: KBJC (BROOMFIELD/JEFFC, CO, US) observed 0347 UTC 23 March 2019
Temperature: 4.0°C (39°F)
Dewpoint: 2.0°C (36°F) [RH = 87%]
Pressure (altimeter): 29.94 inches Hg (1014.0 mb)
Winds: from the N (10 degrees) at 10 MPH (9 knots; 4.6 m/s)
Visibility: 15 miles (24 km)
Ceiling: 6500 feet AGL
Clouds: scattered clouds at 4000 feet AGL
overcast cloud deck at 6500 feet AGL
Weather: no significant weather observed at this time

METAR text: KBJC 230321Z 01003KT 15SM VCSH SCT011 SCT020 OVC040 04/02 A2995 RMK CIG LWR W
Conditions at: KBJC (BROOMFIELD/JEFFC, CO, US) observed 0321 UTC 23 March 2019
Temperature: 4.0°C (39°F)
Dewpoint: 2.0°C (36°F) [RH = 87%]
Pressure (altimeter): 29.95 inches Hg (1014.3 mb)
Winds: from the N (10 degrees) at 3 MPH (3 knots; 1.5 m/s)
Visibility: 15 miles (24 km)
Ceiling: 4000 feet AGL
Clouds: scattered clouds at 1100 feet AGL
scattered clouds at 2000 feet AGL
overcast cloud deck at 4000 feet AGL
Weather: VCSH  (showers in vicinity)

METAR text: KBJC 230253Z 05008KT 15SM -RA SCT009 BKN015 OVC045 04/03 A2996
Conditions at: KBJC (BROOMFIELD/JEFFC, CO, US) observed 0253 UTC 23 March 2019
Temperature: 4.0°C (39°F)
Dewpoint: 3.0°C (37°F) [RH = 93%]
Pressure (altimeter): 29.96 inches Hg (1014.6 mb)
Winds: from the NE (50 degrees) at 9 MPH (8 knots; 4.1 m/s)
Visibility: 15 miles (24 km)
Ceiling: 1500 feet AGL
Clouds: scattered clouds at 900 feet AGL
broken clouds at 1500 feet AGL
overcast cloud deck at 4500 feet AGL
Weather: -RA  (light rain)

METAR text: KBJC 230247Z 06008KT 15SM -RA SCT011 BKN037 OVC045 05/03 A2995
Conditions at: KBJC (BROOMFIELD/JEFFC, CO, US) observed 0247 UTC 23 March 2019
Temperature: 5.0°C (41°F)
Dewpoint: 3.0°C (37°F) [RH = 87%]
Pressure (altimeter): 29.95 inches Hg (1014.3 mb)
Winds: from the ENE (60 degrees) at 9 MPH (8 knots; 4.1 m/s)
Visibility: 15 miles (24 km)
Ceiling: 3700 feet AGL
Clouds: scattered clouds at 1100 feet AGL
broken clouds at 3700 feet AGL
overcast cloud deck at 4500 feet AGL
Weather: -RA  (light rain)

METAR text: KBJC 230147Z 05013G16KT 10SM VCSH SCT020 BKN060 OVC110 06/03 A2992
Conditions at: KBJC (BROOMFIELD/JEFFC, CO, US) observed 0147 UTC 23 March 2019
Temperature: 6.0°C (43°F)
Dewpoint: 3.0°C (37°F) [RH = 81%]
Pressure (altimeter): 29.92 inches Hg (1013.3 mb)
Winds: from the NE (50 degrees) at 15 MPH (13 knots; 6.7 m/s)
gusting to 18 MPH (16 knots; 8.2 m/s)
Visibility: 10 or more miles (16+ km)
Ceiling: 6000 feet AGL
Clouds: scattered clouds at 2000 feet AGL
broken clouds at 6000 feet AGL
overcast cloud deck at 11000 feet AGL
Weather: VCSH  (showers in vicinity)

METAR text: KBJC 230047Z 30016G20KT 15SM VCSH BKN055 BKN070 OVC110 07/00 A2986
Conditions at: KBJC (BROOMFIELD/JEFFC, CO, US) observed 0047 UTC 23 March 2019
Temperature: 7.0°C (45°F)
Dewpoint: 0.0°C (32°F) [RH = 61%]
Pressure (altimeter): 29.86 inches Hg (1011.3 mb)
Winds: from the WNW (300 degrees) at 18 MPH (16 knots; 8.2 m/s)
gusting to 23 MPH (20 knots; 10.3 m/s)
Visibility: 15 miles (24 km)
Ceiling: 5500 feet AGL
Clouds: broken clouds at 5500 feet AGL
broken clouds at 7000 feet AGL
overcast cloud deck at 11000 feet AGL
Weather: VCSH  (showers in vicinity)

METAR text: KBJC 222347Z 28023G28KT 15SM VCSH BKN055 BKN080 OVC150 08/00 A2987
Conditions at: KBJC (BROOMFIELD/JEFFC, CO, US) observed 2347 UTC 22 March 2019
Temperature: 8.0°C (46°F)
Dewpoint: 0.0°C (32°F) [RH = 57%]
Pressure (altimeter): 29.87 inches Hg (1011.6 mb)
Winds: from the W (280 degrees) at 26 MPH (23 knots; 11.8 m/s)
gusting to 32 MPH (28 knots; 14.4 m/s)
Visibility: 15 miles (24 km)
Ceiling: 5500 feet AGL
Clouds: broken clouds at 5500 feet AGL
broken clouds at 8000 feet AGL
overcast cloud deck at 15000 feet AGL
Weather: VCSH  (showers in vicinity)

METAR text: KBJC 222334Z 28024G28KT 15SM VCSH BKN055 BKN075 OVC110 08/00 A2988
Conditions at: KBJC (BROOMFIELD/JEFFC, CO, US) observed 2334 UTC 22 March 2019
Temperature: 8.0°C (46°F)
Dewpoint: 0.0°C (32°F) [RH = 57%]
Pressure (altimeter): 29.88 inches Hg (1011.9 mb)
Winds: from the W (280 degrees) at 28 MPH (24 knots; 12.3 m/s)
gusting to 32 MPH (28 knots; 14.4 m/s)
Visibility: 15 miles (24 km)
Ceiling: 5500 feet AGL
Clouds: broken clouds at 5500 feet AGL
broken clouds at 7500 feet AGL
overcast cloud deck at 11000 feet AGL
Weather: VCSH  (showers in vicinity)

METAR text: KBJC 222259Z 36008KT 10SM VCSH SCT080 BKN110 BKN220 10/M01 A2986
Conditions at: KBJC (BROOMFIELD/JEFFC, CO, US) observed 2259 UTC 22 March 2019
Temperature: 10.0°C (50°F)
Dewpoint: -1.0°C (30°F) [RH = 46%]
Pressure (altimeter): 29.86 inches Hg (1011.3 mb)
Winds: from the N (360 degrees) at 9 MPH (8 knots; 4.1 m/s)
Visibility: 10 or more miles (16+ km)
Ceiling: 11000 feet AGL
Clouds: scattered clouds at 8000 feet AGL
broken clouds at 11000 feet AGL
broken clouds at 22000 feet AGL
Weather: VCSH  (showers in vicinity)

METAR text: KBJC 222152Z 02009KT 12SM VCSH FEW080 SCT110 BKN220 12/M02 A2986
Conditions at: KBJC (BROOMFIELD/JEFFC, CO, US) observed 2152 UTC 22 March 2019
Temperature: 12.0°C (54°F)
Dewpoint: -2.0°C (28°F) [RH = 38%]
Pressure (altimeter): 29.86 inches Hg (1011.3 mb)
Winds: from the NNE (20 degrees) at 10 MPH (9 knots; 4.6 m/s)
Visibility: 12 miles (19 km)
Ceiling: 22000 feet AGL
Clouds: few clouds at 8000 feet AGL
scattered clouds at 11000 feet AGL
broken clouds at 22000 feet AGL
Weather: VCSH  (showers in vicinity)

METAR text: KBJC 222052Z 02010KT 12SM SCT080 SCT120 BKN220 13/M01 A2987
Conditions at: KBJC (BROOMFIELD/JEFFC, CO, US) observed 2052 UTC 22 March 2019
Temperature: 13.0°C (55°F)
Dewpoint: -1.0°C (30°F) [RH = 38%]
Pressure (altimeter): 29.87 inches Hg (1011.6 mb)
Winds: from the NNE (20 degrees) at 12 MPH (10 knots; 5.1 m/s)
Visibility: 12 miles (19 km)
Ceiling: 22000 feet AGL
Clouds: scattered clouds at 8000 feet AGL
scattered clouds at 12000 feet AGL
broken clouds at 22000 feet AGL
Weather: no significant weather observed at this time

METAR text: KBJC 221952Z 33010KT 10SM SCT080 SCT220 12/M01 A2989
Conditions at: KBJC (BROOMFIELD/JEFFC, CO, US) observed 1952 UTC 22 March 2019
Temperature: 12.0°C (54°F)
Dewpoint: -1.0°C (30°F) [RH = 40%]
Pressure (altimeter): 29.89 inches Hg (1012.3 mb)
Winds: from the NNW (330 degrees) at 12 MPH (10 knots; 5.1 m/s)
Visibility: 10 or more miles (16+ km)
Ceiling: at least 12,000 feet AGL
Clouds: scattered clouds at 8000 feet AGL
scattered clouds at 22000 feet AGL
Weather: no significant weather observed at this time

METAR text: KBJC 221845Z 34009KT 10SM SCT080 SCT220 12/M01 A2992
Conditions at: KBJC (BROOMFIELD/JEFFC, CO, US) observed 1845 UTC 22 March 2019
Temperature: 12.0°C (54°F)
Dewpoint: -1.0°C (30°F) [RH = 40%]
Pressure (altimeter): 29.92 inches Hg (1013.3 mb)
Winds: from the NNW (340 degrees) at 10 MPH (9 knots; 4.6 m/s)
Visibility: 10 or more miles (16+ km)
Ceiling: at least 12,000 feet AGL
Clouds: scattered clouds at 8000 feet AGL
scattered clouds at 22000 feet AGL
Weather: no significant weather observed at this time

METAR text: KBJC 221745Z 04007KT 10SM SCT080 10/M02 A2995
Conditions at: KBJC (BROOMFIELD/JEFFC, CO, US) observed 1745 UTC 22 March 2019
Temperature: 10.0°C (50°F)
Dewpoint: -2.0°C (28°F) [RH = 43%]
Pressure (altimeter): 29.95 inches Hg (1014.3 mb)
Winds: from the NE (40 degrees) at 8 MPH (7 knots; 3.6 m/s)
Visibility: 10 or more miles (16+ km)
Ceiling: at least 12,000 feet AGL
Clouds: scattered clouds at 8000 feet AGL
Weather: no significant weather observed at this time

METAR text: KBJC 221645Z 36006KT 10SM SCT065 BKN220 08/M02 A2996
Conditions at: KBJC (BROOMFIELD/JEFFC, CO, US) observed 1645 UTC 22 March 2019
Temperature: 8.0°C (46°F)
Dewpoint: -2.0°C (28°F) [RH = 49%]
Pressure (altimeter): 29.96 inches Hg (1014.6 mb)
Winds: from the N (360 degrees) at 7 MPH (6 knots; 3.1 m/s)
Visibility: 10 or more miles (16+ km)
Ceiling: 22000 feet AGL
Clouds: scattered clouds at 6500 feet AGL
broken clouds at 22000 feet AGL
Weather: no significant weather observed at this time

METAR text: KBJC 221545Z 32010KT 10SM OVC065 05/M03 A2997
Conditions at: KBJC (BROOMFIELD/JEFFC, CO, US) observed 1545 UTC 22 March 2019
Temperature: 5.0°C (41°F)
Dewpoint: -3.0°C (27°F) [RH = 56%]
Pressure (altimeter): 29.97 inches Hg (1015.0 mb)
Winds: from the NW (320 degrees) at 12 MPH (10 knots; 5.1 m/s)
Visibility: 10 or more miles (16+ km)
Ceiling: 6500 feet AGL
Clouds: overcast cloud deck at 6500 feet AGL
Weather: no significant weather observed at this time

METAR text: KBJC 221445Z 34010KT 10SM OVC070 05/M03 A2999
Conditions at: KBJC (BROOMFIELD/JEFFC, CO, US) observed 1445 UTC 22 March 2019
Temperature: 5.0°C (41°F)
Dewpoint: -3.0°C (27°F) [RH = 56%]
Pressure (altimeter): 29.99 inches Hg (1015.7 mb)
Winds: from the NNW (340 degrees) at 12 MPH (10 knots; 5.1 m/s)
Visibility: 10 or more miles (16+ km)
Ceiling: 7000 feet AGL
Clouds: overcast cloud deck at 7000 feet AGL
Weather: no significant weather observed at this time

METAR text: KBJC 221345Z 00000KT 10SM SCT070 BKN120 04/M03 A2999
Conditions at: KBJC (BROOMFIELD/JEFFC, CO, US) observed 1345 UTC 22 March 2019
Temperature: 4.0°C (39°F)
Dewpoint: -3.0°C (27°F) [RH = 60%]
Pressure (altimeter): 29.99 inches Hg (1015.7 mb)
Winds: calm
Visibility: 10 or more miles (16+ km)
Ceiling: 12000 feet AGL
Clouds: scattered clouds at 7000 feet AGL
broken clouds at 12000 feet AGL
Weather: no significant weather observed at this time

METAR text: KBJC 221245Z 31007KT 10SM SCT090 BKN120 04/M04 A2997
Conditions at: KBJC (BROOMFIELD/JEFFC, CO, US) observed 1245 UTC 22 March 2019
Temperature: 4.0°C (39°F)
Dewpoint: -4.0°C (25°F) [RH = 56%]
Pressure (altimeter): 29.97 inches Hg (1015.0 mb)
Winds: from the NW (310 degrees) at 8 MPH (7 knots; 3.6 m/s)
Visibility: 10 or more miles (16+ km)
Ceiling: 12000 feet AGL
Clouds: scattered clouds at 9000 feet AGL
broken clouds at 12000 feet AGL
Weather: no significant weather observed at this time

METAR text: KBJC 221154Z AUTO 34005KT 10SM SCT090 BKN120 03/M04 A2998 RMK AO2
Conditions at: KBJC (BROOMFIELD/JEFFC, CO, US) observed 1154 UTC 22 March 2019
Temperature: 3.0°C (37°F)
Dewpoint: -4.0°C (25°F) [RH = 60%]
Pressure (altimeter): 29.98 inches Hg (1015.3 mb)
Winds: from the NNW (340 degrees) at 6 MPH (5 knots; 2.6 m/s)
Visibility: 10 or more miles (16+ km)
Ceiling: 12000 feet AGL
Clouds: scattered clouds at 9000 feet AGL
broken clouds at 12000 feet AGL
Weather: automated observation with no human augmentation;
there may or may not be significant weather present at this time

METAR text: KBJC 221145Z 00000KT 10SM SCT090 BKN120 03/M05 A2998
Conditions at: KBJC (BROOMFIELD/JEFFC, CO, US) observed 1145 UTC 22 March 2019
Temperature: 3.0°C (37°F)
Dewpoint: -5.0°C (23°F) [RH = 56%]
Pressure (altimeter): 29.98 inches Hg (1015.3 mb)
Winds: calm
Visibility: 10 or more miles (16+ km)
Ceiling: 12000 feet AGL
Clouds: scattered clouds at 9000 feet AGL
broken clouds at 12000 feet AGL
Weather: no significant weather observed at this time

METAR text: KBJC 221136Z AUTO 00000KT 10SM SCT120 03/M05 A2998 RMK AO2
Conditions at: KBJC (BROOMFIELD/JEFFC, CO, US) observed 1136 UTC 22 March 2019
Temperature: 3.0°C (37°F)
Dewpoint: -5.0°C (23°F) [RH = 56%]
Pressure (altimeter): 29.98 inches Hg (1015.3 mb)
Winds: calm
Visibility: 10 or more miles (16+ km)
Ceiling: at least 12,000 feet AGL
Clouds: scattered clouds at 12000 feet AGL
Weather: automated observation with no human augmentation;
there may or may not be significant weather present at this time

METAR text: KBJC 221130Z AUTO 00000KT 10SM SCT120 03/M05 A2998 RMK AO2
Conditions at: KBJC (BROOMFIELD/JEFFC, CO, US) observed 1130 UTC 22 March 2019
Temperature: 3.0°C (37°F)
Dewpoint: -5.0°C (23°F) [RH = 56%]
Pressure (altimeter): 29.98 inches Hg (1015.3 mb)
Winds: calm
Visibility: 10 or more miles (16+ km)
Ceiling: at least 12,000 feet AGL
Clouds: scattered clouds at 12000 feet AGL
Weather: automated observation with no human augmentation;
there may or may not be significant weather present at this time

METAR text: KBJC 221112Z AUTO 36006KT 10SM CLR 03/M05 A2997 RMK AO2
Conditions at: KBJC (BROOMFIELD/JEFFC, CO, US) observed 1112 UTC 22 March 2019
Temperature: 3.0°C (37°F)
Dewpoint: -5.0°C (23°F) [RH = 56%]
Pressure (altimeter): 29.97 inches Hg (1015.0 mb)
Winds: from the N (360 degrees) at 7 MPH (6 knots; 3.1 m/s)
Visibility: 10 or more miles (16+ km)
Ceiling: at least 12,000 feet AGL
Clouds: sky clear below 12,000 feet AGL
Weather: automated observation with no human augmentation;
there may or may not be significant weather present at this time

METAR text: KBJC 221053Z AUTO 33004KT 10SM SCT120 03/M05 A2997 RMK AO2
Conditions at: KBJC (BROOMFIELD/JEFFC, CO, US) observed 1053 UTC 22 March 2019
Temperature: 3.0°C (37°F)
Dewpoint: -5.0°C (23°F) [RH = 56%]
Pressure (altimeter): 29.97 inches Hg (1015.0 mb)
Winds: from the NNW (330 degrees) at 5 MPH (4 knots; 2.1 m/s)
Visibility: 10 or more miles (16+ km)
Ceiling: at least 12,000 feet AGL
Clouds: scattered clouds at 12000 feet AGL
Weather: automated observation with no human augmentation;
there may or may not be significant weather present at this time

Forecast for: KBJC (BROOMFIELD/JEFFC, CO, US)
Text: KBJC 232159Z 2322/2418 08012KT P6SM BKN026 BKN090
Forecast period: 2200 UTC 23 March 2019 to 0000 UTC 24 March 2019
Forecast type: FROM: standard forecast or significant change
Winds: from the E (80 degrees) at 14 MPH (12 knots; 6.2 m/s)
Visibility: 6 or more miles 10+ km)
Ceiling: 2600 feet AGL
Clouds: broken clouds at 2600 feet AGL
broken clouds at 9000 feet AGL
Weather: no significant weather forecast for this period
Text: FM240000 15010KT P6SM SCT028 BKN090
Forecast period: 0000 to 0200 UTC 24 March 2019
Forecast type: FROM: standard forecast or significant change
Winds: from the SSE (150 degrees) at 12 MPH (10 knots; 5.1 m/s)
Visibility: 6 or more miles 10+ km)
Ceiling: 9000 feet AGL
Clouds: scattered clouds at 2800 feet AGL
broken clouds at 9000 feet AGL
Weather: no significant weather forecast for this period
Text: FM240200 25007KT P6SM FEW100 SCT250
Forecast period: 0200 to 1700 UTC 24 March 2019
Forecast type: FROM: standard forecast or significant change
Winds: from the WSW (250 degrees) at 8 MPH (7 knots; 3.6 m/s)
Visibility: 6 or more miles 10+ km)
Ceiling: at least 12,000 feet AGL
Clouds: few clouds at 10000 feet AGL
scattered clouds at 25000 feet AGL
Weather: no significant weather forecast for this period
Text: FM241700 11008KT P6SM SCT070 SCT120
Forecast period: 1700 to 1800 UTC 24 March 2019
Forecast type: FROM: standard forecast or significant change
Winds: from the ESE (110 degrees) at 9 MPH (8 knots; 4.1 m/s)
Visibility: 6 or more miles 10+ km)
Ceiling: at least 12,000 feet AGL
Clouds: scattered clouds at 7000 feet AGL
scattered clouds at 12000 feet AGL
Weather: no significant weather forecast for this period